Hovedside
METAR-TAF:

METAR-TAF

Lufthavner :

Meacham, Oregon, USA

breddegrad: 45-30-41N, lengdegrad: 118-25-29W, høyde over havet: 1135 m

Gjeldene værobservasjon

Denne rapporten ble laget for 11 minutter siden, klokken 03:56 UTC
Flau vind
Temperatur 1°C
Luftfuktighet 86%
Trykk 1020 hPa
Sikt: 16.1 km
Brutte skyer i en høyde av 6000 ft
Brutte skyer i en høyde av 12000 ft

METAR: KMEH 200356Z AUTO 00000KT 10SM BKN060 BKN120 01/M01 A3012 RMK AO2 SLP222 T00111006

Tid: 20:07 (04:07 UTC)


TAF: fraværende

Værobservasjoner og værvarsel for over 4000 flyplasser (METAR- og TAF-rapporter).

Tilgjengelige stasjoner er representert av de røde og gule prikkene på kartet.

Hold musepekeren over prikken for å se navnet på stasjonen.

Klikk så for å se værobservasjoner og -varsler.

For å forandre kartet kan du klikke på den grønne knappen med svart kryss for å zoome inn, på den grønne knappen med strek for å zoome ut, eller på de grønne pilene for å se tilstøtende kart.


METAR-TAF: